sensor_id;sensor_type;location;lat;lon;timestamp;temperature;humidity
9179;DHT22;4624;48.126;11.546;2023-03-13T00:00:52;7.20;99.90
9179;DHT22;4624;48.126;11.546;2023-03-13T00:03:19;7.20;99.90
9179;DHT22;4624;48.126;11.546;2023-03-13T00:05:46;7.20;99.90
9179;DHT22;4624;48.126;11.546;2023-03-13T00:08:13;7.20;99.90
9179;DHT22;4624;48.126;11.546;2023-03-13T00:10:41;7.20;99.90
9179;DHT22;4624;48.126;11.546;2023-03-13T00:13:08;7.20;99.90
9179;DHT22;4624;48.126;11.546;2023-03-13T00:15:35;7.10;99.90
9179;DHT22;4624;48.126;11.546;2023-03-13T00:18:01;7.10;99.90
9179;DHT22;4624;48.126;11.546;2023-03-13T00:20:28;7.10;99.90
9179;DHT22;4624;48.126;11.546;2023-03-13T00:22:55;7.10;99.90
9179;DHT22;4624;48.126;11.546;2023-03-13T00:25:22;7.10;99.90
9179;DHT22;4624;48.126;11.546;2023-03-13T00:27:50;7.10;99.90
9179;DHT22;4624;48.126;11.546;2023-03-13T00:30:17;7.00;99.90
9179;DHT22;4624;48.126;11.546;2023-03-13T00:32:45;7.00;99.90
9179;DHT22;4624;48.126;11.546;2023-03-13T00:35:13;7.00;99.90
9179;DHT22;4624;48.126;11.546;2023-03-13T00:37:40;6.90;99.90
9179;DHT22;4624;48.126;11.546;2023-03-13T00:40:10;6.90;99.90
9179;DHT22;4624;48.126;11.546;2023-03-13T00:42:37;6.80;99.90
9179;DHT22;4624;48.126;11.546;2023-03-13T00:45:06;6.80;99.90
9179;DHT22;4624;48.126;11.546;2023-03-13T00:47:33;6.70;99.90
9179;DHT22;4624;48.126;11.546;2023-03-13T00:49:59;6.70;99.90
9179;DHT22;4624;48.126;11.546;2023-03-13T00:52:26;6.60;99.90
9179;DHT22;4624;48.126;11.546;2023-03-13T00:54:53;6.60;99.90
9179;DHT22;4624;48.126;11.546;2023-03-13T00:57:20;6.60;99.90
9179;DHT22;4624;48.126;11.546;2023-03-13T00:59:47;6.60;99.90
9179;DHT22;4624;48.126;11.546;2023-03-13T01:02:15;6.50;99.90
9179;DHT22;4624;48.126;11.546;2023-03-13T01:04:41;6.50;99.90
9179;DHT22;4624;48.126;11.546;2023-03-13T01:07:08;6.50;99.90
9179;DHT22;4624;48.126;11.546;2023-03-13T01:09:35;6.40;99.90
9179;DHT22;4624;48.126;11.546;2023-03-13T01:12:02;6.50;99.90
9179;DHT22;4624;48.126;11.546;2023-03-13T01:14:29;6.40;99.90
9179;DHT22;4624;48.126;11.546;2023-03-13T01:16:55;6.40;99.90
9179;DHT22;4624;48.126;11.546;2023-03-13T01:19:24;6.40;99.90
9179;DHT22;4624;48.126;11.546;2023-03-13T01:21:50;6.40;99.90
9179;DHT22;4624;48.126;11.546;2023-03-13T01:24:17;6.30;99.90
9179;DHT22;4624;48.126;11.546;2023-03-13T01:26:44;6.30;99.90
9179;DHT22;4624;48.126;11.546;2023-03-13T01:29:11;6.30;99.90
9179;DHT22;4624;48.126;11.546;2023-03-13T01:31:38;6.30;99.90
9179;DHT22;4624;48.126;11.546;2023-03-13T01:34:05;6.20;99.90
9179;DHT22;4624;48.126;11.546;2023-03-13T01:36:35;6.20;99.90
9179;DHT22;4624;48.126;11.546;2023-03-13T01:39:02;6.20;99.90
9179;DHT22;4624;48.126;11.546;2023-03-13T01:41:29;6.20;99.90
9179;DHT22;4624;48.126;11.546;2023-03-13T01:43:58;6.20;99.90
9179;DHT22;4624;48.126;11.546;2023-03-13T01:46:25;6.10;99.90
9179;DHT22;4624;48.126;11.546;2023-03-13T01:48:56;6.10;99.90
9179;DHT22;4624;48.126;11.546;2023-03-13T01:51:27;6.10;99.90
9179;DHT22;4624;48.126;11.546;2023-03-13T01:54:02;6.00;99.90
9179;DHT22;4624;48.126;11.546;2023-03-13T01:56:35;5.90;99.90
9179;DHT22;4624;48.126;11.546;2023-03-13T01:59:04;5.90;99.90
9179;DHT22;4624;48.126;11.546;2023-03-13T02:01:31;5.80;99.90
9179;DHT22;4624;48.126;11.546;2023-03-13T02:03:59;5.80;99.90
9179;DHT22;4624;48.126;11.546;2023-03-13T02:06:28;5.80;99.90
9179;DHT22;4624;48.126;11.546;2023-03-13T02:09:02;5.80;99.90
9179;DHT22;4624;48.126;11.546;2023-03-13T02:11:37;5.80;99.90
9179;DHT22;4624;48.126;11.546;2023-03-13T02:14:05;5.80;99.90
9179;DHT22;4624;48.126;11.546;2023-03-13T02:16:33;5.80;99.90
9179;DHT22;4624;48.126;11.546;2023-03-13T02:19:01;5.80;99.90
9179;DHT22;4624;48.126;11.546;2023-03-13T02:21:38;5.80;99.90
9179;DHT22;4624;48.126;11.546;2023-03-13T02:24:14;5.80;99.90
9179;DHT22;4624;48.126;11.546;2023-03-13T02:26:46;5.80;99.90
9179;DHT22;4624;48.126;11.546;2023-03-13T02:29:13;5.90;99.90
9179;DHT22;4624;48.126;11.546;2023-03-13T02:31:44;5.90;99.90
9179;DHT22;4624;48.126;11.546;2023-03-13T02:34:13;5.90;99.90
9179;DHT22;4624;48.126;11.546;2023-03-13T02:36:41;5.80;99.90
9179;DHT22;4624;48.126;11.546;2023-03-13T02:39:08;5.70;99.90
9179;DHT22;4624;48.126;11.546;2023-03-13T02:41:37;5.70;99.90
9179;DHT22;4624;48.126;11.546;2023-03-13T02:44:06;5.70;99.90
9179;DHT22;4624;48.126;11.546;2023-03-13T02:46:43;5.70;99.90
9179;DHT22;4624;48.126;11.546;2023-03-13T02:49:19;5.70;99.90
9179;DHT22;4624;48.126;11.546;2023-03-13T02:51:47;5.70;99.90
9179;DHT22;4624;48.126;11.546;2023-03-13T02:54:18;5.70;99.90
9179;DHT22;4624;48.126;11.546;2023-03-13T02:56:48;5.60;99.90
9179;DHT22;4624;48.126;11.546;2023-03-13T02:59:17;5.60;99.90
9179;DHT22;4624;48.126;11.546;2023-03-13T03:01:44;5.60;99.90
9179;DHT22;4624;48.126;11.546;2023-03-13T03:04:11;5.70;99.90
9179;DHT22;4624;48.126;11.546;2023-03-13T03:06:38;5.60;99.90
9179;DHT22;4624;48.126;11.546;2023-03-13T03:09:05;5.70;99.90
9179;DHT22;4624;48.126;11.546;2023-03-13T03:11:32;5.70;99.90
9179;DHT22;4624;48.126;11.546;2023-03-13T03:14:00;5.70;99.90
9179;DHT22;4624;48.126;11.546;2023-03-13T03:16:28;5.70;99.90
9179;DHT22;4624;48.126;11.546;2023-03-13T03:18:55;5.70;99.90
9179;DHT22;4624;48.126;11.546;2023-03-13T03:21:21;5.70;99.90
9179;DHT22;4624;48.126;11.546;2023-03-13T03:23:49;5.70;99.90
9179;DHT22;4624;48.126;11.546;2023-03-13T03:26:16;5.70;99.90
9179;DHT22;4624;48.126;11.546;2023-03-13T03:28:43;5.70;99.90
9179;DHT22;4624;48.126;11.546;2023-03-13T03:31:12;5.70;99.90
9179;DHT22;4624;48.126;11.546;2023-03-13T03:33:41;5.80;99.90
9179;DHT22;4624;48.126;11.546;2023-03-13T03:36:10;5.80;99.90
9179;DHT22;4624;48.126;11.546;2023-03-13T03:38:38;5.80;99.90
9179;DHT22;4624;48.126;11.546;2023-03-13T03:41:05;5.80;99.90
9179;DHT22;4624;48.126;11.546;2023-03-13T03:43:32;5.80;99.90
9179;DHT22;4624;48.126;11.546;2023-03-13T03:45:59;5.80;99.90
9179;DHT22;4624;48.126;11.546;2023-03-13T03:48:26;5.80;99.90
9179;DHT22;4624;48.126;11.546;2023-03-13T03:50:54;5.80;99.90
9179;DHT22;4624;48.126;11.546;2023-03-13T03:53:21;5.80;99.90
9179;DHT22;4624;48.126;11.546;2023-03-13T03:55:47;5.80;99.90
9179;DHT22;4624;48.126;11.546;2023-03-13T03:58:14;5.80;99.90
9179;DHT22;4624;48.126;11.546;2023-03-13T04:00:42;5.80;99.90
9179;DHT22;4624;48.126;11.546;2023-03-13T04:03:09;5.80;99.90
9179;DHT22;4624;48.126;11.546;2023-03-13T04:05:36;5.80;99.90
9179;DHT22;4624;48.126;11.546;2023-03-13T04:08:05;5.80;99.90
9179;DHT22;4624;48.126;11.546;2023-03-13T04:10:31;5.90;99.90
9179;DHT22;4624;48.126;11.546;2023-03-13T04:12:58;5.90;99.90
9179;DHT22;4624;48.126;11.546;2023-03-13T04:15:25;5.90;99.90
9179;DHT22;4624;48.126;11.546;2023-03-13T04:17:52;5.90;99.90
9179;DHT22;4624;48.126;11.546;2023-03-13T04:20:19;5.90;99.90
9179;DHT22;4624;48.126;11.546;2023-03-13T04:22:45;5.90;99.90
9179;DHT22;4624;48.126;11.546;2023-03-13T04:25:13;5.90;99.90
9179;DHT22;4624;48.126;11.546;2023-03-13T04:27:40;6.00;99.90
9179;DHT22;4624;48.126;11.546;2023-03-13T04:30:09;6.00;99.90
9179;DHT22;4624;48.126;11.546;2023-03-13T04:32:36;6.10;99.90
9179;DHT22;4624;48.126;11.546;2023-03-13T04:35:03;6.00;99.90
9179;DHT22;4624;48.126;11.546;2023-03-13T04:37:30;6.00;99.90
9179;DHT22;4624;48.126;11.546;2023-03-13T04:39:57;6.00;99.90
9179;DHT22;4624;48.126;11.546;2023-03-13T04:42:25;6.00;99.90
9179;DHT22;4624;48.126;11.546;2023-03-13T04:44:52;6.00;99.90
9179;DHT22;4624;48.126;11.546;2023-03-13T04:47:19;6.00;99.90
9179;DHT22;4624;48.126;11.546;2023-03-13T04:49:45;6.00;99.90
9179;DHT22;4624;48.126;11.546;2023-03-13T04:52:12;6.00;99.90
9179;DHT22;4624;48.126;11.546;2023-03-13T04:54:39;6.00;99.90
9179;DHT22;4624;48.126;11.546;2023-03-13T04:57:06;6.00;99.90
9179;DHT22;4624;48.126;11.546;2023-03-13T04:59:34;6.00;99.90
9179;DHT22;4624;48.126;11.546;2023-03-13T05:02:00;6.10;99.90
9179;DHT22;4624;48.126;11.546;2023-03-13T05:04:27;6.00;99.90
9179;DHT22;4624;48.126;11.546;2023-03-13T05:06:54;6.00;99.90
9179;DHT22;4624;48.126;11.546;2023-03-13T05:09:21;6.00;99.90
9179;DHT22;4624;48.126;11.546;2023-03-13T05:11:48;6.00;99.90
9179;DHT22;4624;48.126;11.546;2023-03-13T05:14:15;6.00;99.90
9179;DHT22;4624;48.126;11.546;2023-03-13T05:16:43;6.10;99.90
9179;DHT22;4624;48.126;11.546;2023-03-13T05:19:09;6.10;99.90
9179;DHT22;4624;48.126;11.546;2023-03-13T05:21:36;6.10;99.90
9179;DHT22;4624;48.126;11.546;2023-03-13T05:24:04;6.10;99.90
9179;DHT22;4624;48.126;11.546;2023-03-13T05:26:30;6.20;99.90
9179;DHT22;4624;48.126;11.546;2023-03-13T05:28:57;6.20;99.90
9179;DHT22;4624;48.126;11.546;2023-03-13T05:31:24;6.30;99.90
9179;DHT22;4624;48.126;11.546;2023-03-13T05:33:52;6.30;99.90
9179;DHT22;4624;48.126;11.546;2023-03-13T05:36:18;6.30;99.90
9179;DHT22;4624;48.126;11.546;2023-03-13T05:38:45;6.30;99.90
9179;DHT22;4624;48.126;11.546;2023-03-13T05:41:12;6.30;99.90
9179;DHT22;4624;48.126;11.546;2023-03-13T05:43:39;6.40;99.90
9179;DHT22;4624;48.126;11.546;2023-03-13T05:46:05;6.40;99.90
9179;DHT22;4624;48.126;11.546;2023-03-13T05:48:32;6.40;99.90
9179;DHT22;4624;48.126;11.546;2023-03-13T05:51:00;6.40;99.90
9179;DHT22;4624;48.126;11.546;2023-03-13T05:53:27;6.50;99.90
9179;DHT22;4624;48.126;11.546;2023-03-13T05:55:54;6.50;99.90
9179;DHT22;4624;48.126;11.546;2023-03-13T05:58:20;6.50;99.90
9179;DHT22;4624;48.126;11.546;2023-03-13T06:00:47;6.50;99.90
9179;DHT22;4624;48.126;11.546;2023-03-13T06:03:14;6.60;99.90
9179;DHT22;4624;48.126;11.546;2023-03-13T06:05:40;6.60;99.90
9179;DHT22;4624;48.126;11.546;2023-03-13T06:08:09;6.70;99.90
9179;DHT22;4624;48.126;11.546;2023-03-13T06:10:35;6.70;99.90
9179;DHT22;4624;48.126;11.546;2023-03-13T06:13:02;6.70;99.90
9179;DHT22;4624;48.126;11.546;2023-03-13T06:15:29;6.70;99.90
9179;DHT22;4624;48.126;11.546;2023-03-13T06:17:56;6.70;99.90
9179;DHT22;4624;48.126;11.546;2023-03-13T06:20:23;6.80;99.90
9179;DHT22;4624;48.126;11.546;2023-03-13T06:22:49;6.80;99.90
9179;DHT22;4624;48.126;11.546;2023-03-13T06:25:17;6.90;99.90
9179;DHT22;4624;48.126;11.546;2023-03-13T06:27:44;6.90;99.90
9179;DHT22;4624;48.126;11.546;2023-03-13T06:30:11;7.00;99.90
9179;DHT22;4624;48.126;11.546;2023-03-13T06:32:38;7.10;99.90
9179;DHT22;4624;48.126;11.546;2023-03-13T06:35:05;7.10;99.90
9179;DHT22;4624;48.126;11.546;2023-03-13T06:37:32;7.10;99.80
9179;DHT22;4624;48.126;11.546;2023-03-13T06:39:59;7.10;99.70
9179;DHT22;4624;48.126;11.546;2023-03-13T06:42:27;7.20;99.60
9179;DHT22;4624;48.126;11.546;2023-03-13T06:44:54;7.20;99.60
9179;DHT22;4624;48.126;11.546;2023-03-13T06:47:20;7.30;99.50
9179;DHT22;4624;48.126;11.546;2023-03-13T06:49:47;7.30;99.40
9179;DHT22;4624;48.126;11.546;2023-03-13T06:52:14;7.30;99.30
9179;DHT22;4624;48.126;11.546;2023-03-13T06:54:41;7.40;99.30
9179;DHT22;4624;48.126;11.546;2023-03-13T06:57:08;7.40;99.20
9179;DHT22;4624;48.126;11.546;2023-03-13T06:59:36;7.40;99.10
9179;DHT22;4624;48.126;11.546;2023-03-13T07:02:03;7.50;99.10
9179;DHT22;4624;48.126;11.546;2023-03-13T07:04:30;7.50;99.00
9179;DHT22;4624;48.126;11.546;2023-03-13T07:06:57;7.50;98.90
9179;DHT22;4624;48.126;11.546;2023-03-13T07:09:24;7.50;98.90
9179;DHT22;4624;48.126;11.546;2023-03-13T07:11:51;7.50;98.80
9179;DHT22;4624;48.126;11.546;2023-03-13T07:14:17;7.60;98.70
9179;DHT22;4624;48.126;11.546;2023-03-13T07:16:45;7.60;98.70
9179;DHT22;4624;48.126;11.546;2023-03-13T07:19:12;7.60;98.50
9179;DHT22;4624;48.126;11.546;2023-03-13T07:21:39;7.70;98.50
9179;DHT22;4624;48.126;11.546;2023-03-13T07:24:06;7.80;98.40
9179;DHT22;4624;48.126;11.546;2023-03-13T07:26:33;7.80;98.40
9179;DHT22;4624;48.126;11.546;2023-03-13T07:29:00;7.90;98.30
9179;DHT22;4624;48.126;11.546;2023-03-13T07:31:27;7.90;98.10
9179;DHT22;4624;48.126;11.546;2023-03-13T07:33:55;8.00;98.00
9179;DHT22;4624;48.126;11.546;2023-03-13T07:36:22;8.10;97.90
9179;DHT22;4624;48.126;11.546;2023-03-13T07:38:50;8.10;97.70
9179;DHT22;4624;48.126;11.546;2023-03-13T07:41:17;8.20;97.60
9179;DHT22;4624;48.126;11.546;2023-03-13T07:43:45;8.20;97.40
9179;DHT22;4624;48.126;11.546;2023-03-13T07:46:13;8.20;97.20
9179;DHT22;4624;48.126;11.546;2023-03-13T07:48:41;8.20;97.10
9179;DHT22;4624;48.126;11.546;2023-03-13T07:51:13;8.30;97.10
9179;DHT22;4624;48.126;11.546;2023-03-13T07:53:40;8.30;97.00
9179;DHT22;4624;48.126;11.546;2023-03-13T07:56:09;8.30;96.80
9179;DHT22;4624;48.126;11.546;2023-03-13T07:58:38;8.40;96.80
9179;DHT22;4624;48.126;11.546;2023-03-13T08:01:09;8.40;96.50
9179;DHT22;4624;48.126;11.546;2023-03-13T08:03:35;8.50;96.30
9179;DHT22;4624;48.126;11.546;2023-03-13T08:06:05;8.60;96.30
9179;DHT22;4624;48.126;11.546;2023-03-13T08:08:33;8.60;96.00
9179;DHT22;4624;48.126;11.546;2023-03-13T08:11:01;8.70;96.00
9179;DHT22;4624;48.126;11.546;2023-03-13T08:13:28;8.80;96.10
9179;DHT22;4624;48.126;11.546;2023-03-13T08:16:03;8.90;95.80
9179;DHT22;4624;48.126;11.546;2023-03-13T08:18:30;9.10;95.60
9179;DHT22;4624;48.126;11.546;2023-03-13T08:21:00;9.20;95.50
9179;DHT22;4624;48.126;11.546;2023-03-13T08:23:28;9.40;95.40
9179;DHT22;4624;48.126;11.546;2023-03-13T08:26:00;9.70;95.30
9179;DHT22;4624;48.126;11.546;2023-03-13T08:28:27;9.90;94.90
9179;DHT22;4624;48.126;11.546;2023-03-13T08:30:54;9.90;94.80
9179;DHT22;4624;48.126;11.546;2023-03-13T08:33:21;9.90;94.80
9179;DHT22;4624;48.126;11.546;2023-03-13T08:35:48;9.90;94.70
9179;DHT22;4624;48.126;11.546;2023-03-13T08:38:14;9.80;94.80
9179;DHT22;4624;48.126;11.546;2023-03-13T08:40:41;9.70;95.00
9179;DHT22;4624;48.126;11.546;2023-03-13T08:43:09;9.70;95.20
9179;DHT22;4624;48.126;11.546;2023-03-13T08:45:36;9.60;95.20
9179;DHT22;4624;48.126;11.546;2023-03-13T08:48:03;9.70;95.50
9179;DHT22;4624;48.126;11.546;2023-03-13T08:50:30;9.80;95.80
9179;DHT22;4624;48.126;11.546;2023-03-13T08:52:56;9.90;96.10
9179;DHT22;4624;48.126;11.546;2023-03-13T08:55:23;9.90;95.80
9179;DHT22;4624;48.126;11.546;2023-03-13T08:57:50;10.10;95.40
9179;DHT22;4624;48.126;11.546;2023-03-13T09:00:19;10.30;95.40
9179;DHT22;4624;48.126;11.546;2023-03-13T09:02:46;10.60;95.40
9179;DHT22;4624;48.126;11.546;2023-03-13T09:05:12;11.10;95.30
9179;DHT22;4624;48.126;11.546;2023-03-13T09:07:39;11.70;95.30
9179;DHT22;4624;48.126;11.546;2023-03-13T09:10:07;12.20;95.10
9179;DHT22;4624;48.126;11.546;2023-03-13T09:12:34;12.90;95.00
9179;DHT22;4624;48.126;11.546;2023-03-13T09:15:00;13.50;94.50
9179;DHT22;4624;48.126;11.546;2023-03-13T09:17:28;14.10;94.10
9179;DHT22;4624;48.126;11.546;2023-03-13T09:19:55;15.00;93.30
9179;DHT22;4624;48.126;11.546;2023-03-13T09:22:22;15.20;91.60
9179;DHT22;4624;48.126;11.546;2023-03-13T09:24:49;15.10;91.00
9179;DHT22;4624;48.126;11.546;2023-03-13T09:27:15;14.90;90.20
9179;DHT22;4624;48.126;11.546;2023-03-13T09:29:42;14.80;90.00
9179;DHT22;4624;48.126;11.546;2023-03-13T09:32:09;14.80;88.80
9179;DHT22;4624;48.126;11.546;2023-03-13T09:34:37;15.40;89.20
9179;DHT22;4624;48.126;11.546;2023-03-13T09:37:04;16.80;88.30
9179;DHT22;4624;48.126;11.546;2023-03-13T09:39:31;18.30;84.20
9179;DHT22;4624;48.126;11.546;2023-03-13T09:42:04;19.30;78.70
9179;DHT22;4624;48.126;11.546;2023-03-13T09:44:38;19.70;73.40
9179;DHT22;4624;48.126;11.546;2023-03-13T09:47:09;19.70;70.90
9179;DHT22;4624;48.126;11.546;2023-03-13T09:49:44;19.90;68.40
9179;DHT22;4624;48.126;11.546;2023-03-13T09:52:15;20.50;67.80
9179;DHT22;4624;48.126;11.546;2023-03-13T09:54:47;21.30;65.50
9179;DHT22;4624;48.126;11.546;2023-03-13T09:57:19;22.00;60.20
9179;DHT22;4624;48.126;11.546;2023-03-13T09:59:52;22.30;58.70
9179;DHT22;4624;48.126;11.546;2023-03-13T10:02:29;22.70;56.80
9179;DHT22;4624;48.126;11.546;2023-03-13T10:05:07;23.20;54.80
9179;DHT22;4624;48.126;11.546;2023-03-13T10:07:36;23.10;53.60
9179;DHT22;4624;48.126;11.546;2023-03-13T10:10:05;22.60;53.00
9179;DHT22;4624;48.126;11.546;2023-03-13T10:12:37;22.60;53.20
9179;DHT22;4624;48.126;11.546;2023-03-13T10:15:32;22.80;52.40
9179;DHT22;4624;48.126;11.546;2023-03-13T10:18:11;23.00;52.40
9179;DHT22;4624;48.126;11.546;2023-03-13T10:20:40;23.30;52.00
9179;DHT22;4624;48.126;11.546;2023-03-13T10:23:13;23.60;51.30
9179;DHT22;4624;48.126;11.546;2023-03-13T10:25:41;23.40;50.60
9179;DHT22;4624;48.126;11.546;2023-03-13T10:28:10;22.70;49.80
9179;DHT22;4624;48.126;11.546;2023-03-13T10:30:40;21.80;49.80
9179;DHT22;4624;48.126;11.546;2023-03-13T10:33:22;22.30;49.80
9179;DHT22;4624;48.126;11.546;2023-03-13T10:36:03;23.20;49.30
9179;DHT22;4624;48.126;11.546;2023-03-13T10:38:33;23.50;48.20
9179;DHT22;4624;48.126;11.546;2023-03-13T10:41:01;23.10;47.40
9179;DHT22;4624;48.126;11.546;2023-03-13T10:43:30;22.30;47.10
9179;DHT22;4624;48.126;11.546;2023-03-13T10:45:57;21.30;47.80
9179;DHT22;4624;48.126;11.546;2023-03-13T10:48:26;20.60;49.20
9179;DHT22;4624;48.126;11.546;2023-03-13T10:50:55;20.20;49.90
9179;DHT22;4624;48.126;11.546;2023-03-13T10:53:31;20.00;50.90
9179;DHT22;4624;48.126;11.546;2023-03-13T10:56:03;20.10;51.20
9179;DHT22;4624;48.126;11.546;2023-03-13T10:58:36;20.50;51.10
9179;DHT22;4624;48.126;11.546;2023-03-13T11:01:14;21.20;50.60
9179;DHT22;4624;48.126;11.546;2023-03-13T11:03:43;21.60;49.70
9179;DHT22;4624;48.126;11.546;2023-03-13T11:06:23;22.20;49.40
9179;DHT22;4624;48.126;11.546;2023-03-13T11:08:58;22.10;48.80
9179;DHT22;4624;48.126;11.546;2023-03-13T11:11:25;22.00;48.50
9179;DHT22;4624;48.126;11.546;2023-03-13T11:14:07;22.30;47.60
9179;DHT22;4624;48.126;11.546;2023-03-13T11:16:40;22.30;47.50
9179;DHT22;4624;48.126;11.546;2023-03-13T11:19:27;22.30;47.30
9179;DHT22;4624;48.126;11.546;2023-03-13T11:22:03;22.70;47.40
9179;DHT22;4624;48.126;11.546;2023-03-13T11:24:43;24.10;46.70
9179;DHT22;4624;48.126;11.546;2023-03-13T11:27:18;25.00;44.90
9179;DHT22;4624;48.126;11.546;2023-03-13T11:29:59;25.10;45.30
9179;DHT22;4624;48.126;11.546;2023-03-13T11:32:32;25.50;45.40
9179;DHT22;4624;48.126;11.546;2023-03-13T11:35:06;25.60;45.10
9179;DHT22;4624;48.126;11.546;2023-03-13T11:37:37;26.00;45.10
9179;DHT22;4624;48.126;11.546;2023-03-13T11:40:17;26.70;44.60
9179;DHT22;4624;48.126;11.546;2023-03-13T11:43:04;27.00;44.30
9179;DHT22;4624;48.126;11.546;2023-03-13T11:46:01;27.30;44.10
9179;DHT22;4624;48.126;11.546;2023-03-13T11:48:52;27.50;44.30
9179;DHT22;4624;48.126;11.546;2023-03-13T11:51:27;27.10;44.40
9179;DHT22;4624;48.126;11.546;2023-03-13T11:54:07;26.70;44.50
9179;DHT22;4624;48.126;11.546;2023-03-13T11:56:42;26.70;45.30
9179;DHT22;4624;48.126;11.546;2023-03-13T11:59:31;27.40;44.40
9179;DHT22;4624;48.126;11.546;2023-03-13T12:02:08;27.50;44.20
9179;DHT22;4624;48.126;11.546;2023-03-13T12:04:42;27.40;43.60
9179;DHT22;4624;48.126;11.546;2023-03-13T12:07:19;27.90;43.50
9179;DHT22;4624;48.126;11.546;2023-03-13T12:09:49;28.50;42.80
9179;DHT22;4624;48.126;11.546;2023-03-13T12:12:26;28.80;42.00
9179;DHT22;4624;48.126;11.546;2023-03-13T12:14:58;28.80;41.80
9179;DHT22;4624;48.126;11.546;2023-03-13T12:17:32;28.60;41.70
9179;DHT22;4624;48.126;11.546;2023-03-13T12:20:02;28.60;42.00
9179;DHT22;4624;48.126;11.546;2023-03-13T12:22:35;28.30;42.50
9179;DHT22;4624;48.126;11.546;2023-03-13T12:25:09;27.30;43.10
9179;DHT22;4624;48.126;11.546;2023-03-13T12:27:40;26.20;44.50
9179;DHT22;4624;48.126;11.546;2023-03-13T12:30:20;26.10;44.70
9179;DHT22;4624;48.126;11.546;2023-03-13T12:32:55;25.30;45.20
9179;DHT22;4624;48.126;11.546;2023-03-13T12:35:26;24.80;46.20
9179;DHT22;4624;48.126;11.546;2023-03-13T12:37:59;25.10;45.80
9179;DHT22;4624;48.126;11.546;2023-03-13T12:40:32;25.00;46.00
9179;DHT22;4624;48.126;11.546;2023-03-13T12:43:05;24.70;46.20
9179;DHT22;4624;48.126;11.546;2023-03-13T12:45:44;25.30;46.10
9179;DHT22;4624;48.126;11.546;2023-03-13T12:48:36;26.10;44.90
9179;DHT22;4624;48.126;11.546;2023-03-13T12:51:15;26.20;44.70
9179;DHT22;4624;48.126;11.546;2023-03-13T12:54:12;25.80;45.00
9179;DHT22;4624;48.126;11.546;2023-03-13T12:56:58;24.80;46.10
9179;DHT22;4624;48.126;11.546;2023-03-13T12:59:32;23.80;47.20
9179;DHT22;4624;48.126;11.546;2023-03-13T13:02:02;22.90;48.50
9179;DHT22;4624;48.126;11.546;2023-03-13T13:04:42;22.20;50.40
9179;DHT22;4624;48.126;11.546;2023-03-13T13:07:23;21.60;50.80
9179;DHT22;4624;48.126;11.546;2023-03-13T13:10:04;21.30;51.50
9179;DHT22;4624;48.126;11.546;2023-03-13T13:12:42;20.90;52.10
9179;DHT22;4624;48.126;11.546;2023-03-13T13:15:18;20.50;52.80
9179;DHT22;4624;48.126;11.546;2023-03-13T13:17:57;20.40;53.60
9179;DHT22;4624;48.126;11.546;2023-03-13T13:20:37;20.30;54.50
9179;DHT22;4624;48.126;11.546;2023-03-13T13:23:31;20.20;54.70
9179;DHT22;4624;48.126;11.546;2023-03-13T13:32:43;20.20;55.30
9179;DHT22;4624;48.126;11.546;2023-03-13T13:35:28;20.00;55.20
9179;DHT22;4624;48.126;11.546;2023-03-13T13:38:28;19.90;55.50
9179;DHT22;4624;48.126;11.546;2023-03-13T13:44:24;19.70;56.10
9179;DHT22;4624;48.126;11.546;2023-03-13T13:46:52;19.50;56.50
9179;DHT22;4624;48.126;11.546;2023-03-13T13:49:22;19.30;56.60
9179;DHT22;4624;48.126;11.546;2023-03-13T13:52:17;19.10;56.80
9179;DHT22;4624;48.126;11.546;2023-03-13T13:54:56;18.90;57.10
9179;DHT22;4624;48.126;11.546;2023-03-13T13:57:25;18.70;57.50
9179;DHT22;4624;48.126;11.546;2023-03-13T13:59:55;18.60;57.90
9179;DHT22;4624;48.126;11.546;2023-03-13T14:02:30;18.50;58.20
9179;DHT22;4624;48.126;11.546;2023-03-13T14:05:02;18.50;58.30
9179;DHT22;4624;48.126;11.546;2023-03-13T14:07:36;18.50;58.50
9179;DHT22;4624;48.126;11.546;2023-03-13T14:10:17;18.50;58.90
9179;DHT22;4624;48.126;11.546;2023-03-13T14:12:46;18.50;59.20
9179;DHT22;4624;48.126;11.546;2023-03-13T14:15:18;18.50;59.00
9179;DHT22;4624;48.126;11.546;2023-03-13T14:17:46;18.50;59.20
9179;DHT22;4624;48.126;11.546;2023-03-13T14:20:31;18.40;59.10
9179;DHT22;4624;48.126;11.546;2023-03-13T14:23:00;18.50;59.10
9179;DHT22;4624;48.126;11.546;2023-03-13T14:25:39;18.40;58.60
9179;DHT22;4624;48.126;11.546;2023-03-13T14:28:15;18.40;58.40
9179;DHT22;4624;48.126;11.546;2023-03-13T14:30:42;18.40;58.60
9179;DHT22;4624;48.126;11.546;2023-03-13T14:33:09;18.30;58.90
9179;DHT22;4624;48.126;11.546;2023-03-13T14:35:38;18.30;59.40
9179;DHT22;4624;48.126;11.546;2023-03-13T14:38:05;18.20;59.90
9179;DHT22;4624;48.126;11.546;2023-03-13T14:40:36;18.20;60.00
9179;DHT22;4624;48.126;11.546;2023-03-13T14:43:04;18.20;60.00
9179;DHT22;4624;48.126;11.546;2023-03-13T14:45:42;18.20;59.70
9179;DHT22;4624;48.126;11.546;2023-03-13T14:48:16;18.30;59.60
9179;DHT22;4624;48.126;11.546;2023-03-13T14:50:47;18.20;59.70
9179;DHT22;4624;48.126;11.546;2023-03-13T14:53:18;18.20;60.00
9179;DHT22;4624;48.126;11.546;2023-03-13T14:55:45;18.20;59.80
9179;DHT22;4624;48.126;11.546;2023-03-13T14:58:26;18.20;59.70
9179;DHT22;4624;48.126;11.546;2023-03-13T15:00:54;18.10;59.90
9179;DHT22;4624;48.126;11.546;2023-03-13T15:03:29;18.20;59.90
9179;DHT22;4624;48.126;11.546;2023-03-13T15:06:19;18.20;59.70
9179;DHT22;4624;48.126;11.546;2023-03-13T15:08:48;18.20;59.70
9179;DHT22;4624;48.126;11.546;2023-03-13T15:11:26;18.20;59.70
9179;DHT22;4624;48.126;11.546;2023-03-13T15:13:54;18.20;59.70
9179;DHT22;4624;48.126;11.546;2023-03-13T15:16:22;18.20;59.70
9179;DHT22;4624;48.126;11.546;2023-03-13T15:18:50;18.10;59.80
9179;DHT22;4624;48.126;11.546;2023-03-13T15:21:29;18.10;60.20
9179;DHT22;4624;48.126;11.546;2023-03-13T15:23:59;18.10;60.30
9179;DHT22;4624;48.126;11.546;2023-03-13T15:26:26;18.10;60.30
9179;DHT22;4624;48.126;11.546;2023-03-13T15:28:53;18.00;60.20
9179;DHT22;4624;48.126;11.546;2023-03-13T15:31:24;18.00;60.40
9179;DHT22;4624;48.126;11.546;2023-03-13T15:33:55;18.00;60.70
9179;DHT22;4624;48.126;11.546;2023-03-13T15:36:23;18.00;60.80
9179;DHT22;4624;48.126;11.546;2023-03-13T15:38:51;17.90;60.70
9179;DHT22;4624;48.126;11.546;2023-03-13T15:41:18;17.90;61.00
9179;DHT22;4624;48.126;11.546;2023-03-13T15:43:45;17.90;61.10
9179;DHT22;4624;48.126;11.546;2023-03-13T15:46:17;17.90;61.20
9179;DHT22;4624;48.126;11.546;2023-03-13T15:48:45;17.90;61.40
9179;DHT22;4624;48.126;11.546;2023-03-13T15:51:14;17.80;61.60
9179;DHT22;4624;48.126;11.546;2023-03-13T15:53:42;17.80;61.90
9179;DHT22;4624;48.126;11.546;2023-03-13T15:56:14;17.80;62.10
9179;DHT22;4624;48.126;11.546;2023-03-13T15:58:41;17.70;62.20
9179;DHT22;4624;48.126;11.546;2023-03-13T16:01:09;17.70;62.20
9179;DHT22;4624;48.126;11.546;2023-03-13T16:03:37;17.70;62.40
9179;DHT22;4624;48.126;11.546;2023-03-13T16:06:12;17.70;62.40
9179;DHT22;4624;48.126;11.546;2023-03-13T16:08:39;17.70;62.40
9179;DHT22;4624;48.126;11.546;2023-03-13T16:11:06;17.60;62.10
9179;DHT22;4624;48.126;11.546;2023-03-13T16:13:35;17.60;62.10
9179;DHT22;4624;48.126;11.546;2023-03-13T16:16:04;17.60;62.30
9179;DHT22;4624;48.126;11.546;2023-03-13T16:18:31;17.50;62.40
9179;DHT22;4624;48.126;11.546;2023-03-13T16:20:58;17.50;62.50
9179;DHT22;4624;48.126;11.546;2023-03-13T16:23:25;17.40;62.60